Time;durP1;ratioP1;P1;durP2;ratioP2;P2;SDS_P1;SDS_P2;PMS_P1;PMS_P2;Temp;Humidity;BMP_temperature;BMP_pressure;BME280_temperature;BME280_humidity;BME280_pressure;Samples;Min_cycle;Max_cycle;Signal;HPM_P1;HPM_P2
2021/03/29 00:02:22;;;;;;;7.20;3.13;;;;;;;7.30;53.62;97632.91;5090458;28;20043;-66
2021/03/29 00:04:49;;;;;;;6.95;3.00;;;;;;;7.35;53.66;97634.84;5092882;28;20044;-67
2021/03/29 00:07:18;;;;;;;6.05;2.92;;;;;;;7.32;53.53;97636.19;5093094;28;20048;-66
2021/03/29 00:09:45;;;;;;;5.93;2.78;;;;;;;7.34;53.38;97634.03;5093702;28;20048;-66
2021/03/29 00:12:12;;;;;;;8.60;3.22;;;;;;;7.33;53.67;97635.09;5093291;28;20048;-66
2021/03/29 00:14:40;;;;;;;10.38;3.00;;;;;;;7.25;53.52;97633.72;5092478;28;20101;-66
2021/03/29 00:17:07;;;;;;;7.55;2.90;;;;;;;7.25;53.70;97625.59;5089344;28;20082;-66
2021/03/29 00:19:35;;;;;;;7.75;3.00;;;;;;;7.26;53.68;97631.84;5092743;28;20051;-66
2021/03/29 00:22:02;;;;;;;7.32;2.70;;;;;;;7.27;53.69;97633.47;5092494;28;20069;-67
2021/03/29 00:24:30;;;;;;;5.57;3.10;;;;;;;7.32;53.55;97630.78;5092708;28;20052;-66
2021/03/29 00:26:56;;;;;;;5.97;2.72;;;;;;;7.37;53.76;97636.22;5092437;28;20048;-66
2021/03/29 00:29:22;;;;;;;4.10;2.60;;;;;;;7.43;53.86;97632.44;5092699;28;20040;-66
2021/03/29 00:31:49;;;;;;;5.13;2.70;;;;;;;7.46;53.42;97637.31;5092170;28;20480;-66
2021/03/29 00:34:16;;;;;;;6.90;2.85;;;;;;;7.48;53.96;97635.16;5092868;28;20039;-67
2021/03/29 00:36:42;;;;;;;6.93;3.00;;;;;;;7.50;53.66;97638.41;5092248;28;20048;-66
2021/03/29 00:39:09;;;;;;;7.38;3.40;;;;;;;7.50;53.52;97643.81;5092844;28;20036;-66
2021/03/29 00:41:37;;;;;;;7.60;3.00;;;;;;;7.49;53.66;97646.81;5092215;28;20379;-66
2021/03/29 00:44:05;;;;;;;4.95;2.65;;;;;;;7.48;53.55;97651.44;5092235;28;20093;-67
2021/03/29 00:46:32;;;;;;;6.40;2.97;;;;;;;7.45;53.78;97651.94;5092393;28;20051;-66
2021/03/29 00:48:58;;;;;;;6.78;3.05;;;;;;;7.46;53.54;97658.19;5091719;28;20032;-66
2021/03/29 00:51:29;;;;;;;5.10;2.60;;;;;;;7.42;53.86;97647.06;5091940;28;20548;-66
2021/03/29 00:53:56;;;;;;;10.98;3.20;;;;;;;7.38;53.92;97656.81;5091697;28;20047;-67
2021/03/29 00:56:24;;;;;;;7.82;3.42;;;;;;;7.36;54.14;97648.16;5092293;28;20492;-66
2021/03/29 00:58:53;;;;;;;9.05;2.90;;;;;;;7.34;54.04;97650.28;5091561;28;20040;-66
2021/03/29 01:01:23;;;;;;;4.97;2.92;;;;;;;7.33;54.35;97659.50;5092240;28;20051;-66
2021/03/29 01:03:51;;;;;;;7.13;3.00;;;;;;;7.27;54.02;97649.72;5091577;28;20044;-66
2021/03/29 01:06:19;;;;;;;5.68;2.95;;;;;;;7.23;54.49;97651.31;5091737;28;20048;-66
2021/03/29 01:08:49;;;;;;;5.35;3.00;;;;;;;7.18;54.35;97648.59;5091791;28;20048;-66
2021/03/29 01:11:17;;;;;;;6.20;2.88;;;;;;;7.16;54.58;97648.06;5091214;28;20048;-67
2021/03/29 01:13:45;;;;;;;4.50;2.55;;;;;;;7.13;54.75;97660.22;5091815;28;20044;-66
2021/03/29 01:16:14;;;;;;;8.27;2.97;;;;;;;7.10;54.90;97655.34;5090893;28;20098;-67
2021/03/29 01:18:41;;;;;;;8.10;3.17;;;;;;;7.08;55.24;97649.34;5091785;28;20043;-67
2021/03/29 01:21:24;;;;;;;7.80;3.38;;;;;;;7.06;55.34;97649.63;5090681;28;20503;-67
2021/03/29 01:23:52;;;;;;;6.00;3.15;;;;;;;7.04;55.67;97654.47;5071652;28;20044;-67
2021/03/29 01:26:32;;;;;;;5.43;3.00;;;;;;;7.04;55.63;97651.75;5070583;28;20545;-67
2021/03/29 01:28:58;;;;;;;6.00;3.50;;;;;;;7.03;55.56;97650.16;5090192;28;20044;-67
2021/03/29 01:31:24;;;;;;;6.90;3.03;;;;;;;7.04;55.39;97654.47;5091120;28;20048;-67
2021/03/29 01:33:52;;;;;;;6.65;3.22;;;;;;;7.03;55.43;97658.28;5090925;28;20097;-67
2021/03/29 01:36:20;;;;;;;7.80;3.65;;;;;;;7.02;55.13;97662.06;5091550;28;20044;-67
2021/03/29 01:38:47;;;;;;;10.18;3.80;;;;;;;7.00;55.17;97656.09;5090785;28;20051;-67
2021/03/29 01:41:15;;;;;;;5.43;2.85;;;;;;;6.98;55.51;97658.25;5091584;28;20062;-67
2021/03/29 01:43:42;;;;;;;5.50;3.13;;;;;;;6.95;55.31;97658.78;5090752;28;20040;-67
2021/03/29 01:46:08;;;;;;;6.20;2.97;;;;;;;6.95;55.64;97664.19;5091130;28;20044;-67
2021/03/29 01:48:35;;;;;;;6.50;2.80;;;;;;;6.94;55.69;97654.44;5087446;28;20032;-67
2021/03/29 01:51:02;;;;;;;7.10;3.25;;;;;;;6.96;55.73;97663.13;5090786;28;20036;-68
2021/03/29 01:53:30;;;;;;;6.47;2.70;;;;;;;6.96;55.67;97660.41;5091188;28;20097;-67
2021/03/29 01:55:56;;;;;;;6.82;2.90;;;;;;;6.95;55.25;97664.19;5090643;28;20195;-67
2021/03/29 01:58:22;;;;;;;5.28;2.83;;;;;;;6.95;55.14;97655.25;5090983;28;20052;-67
2021/03/29 02:00:52;;;;;;;6.15;3.25;;;;;;;6.95;55.09;97661.50;5090332;28;20477;-67
2021/03/29 02:03:20;;;;;;;7.95;3.33;;;;;;;6.95;54.83;97663.38;5091149;28;20085;-67
2021/03/29 02:05:47;;;;;;;8.75;3.08;;;;;;;6.95;55.03;97664.19;5090390;28;20047;-67
2021/03/29 02:08:15;;;;;;;8.40;3.15;;;;;;;6.96;54.92;97665.81;5090587;28;20040;-67
2021/03/29 02:10:42;;;;;;;5.43;3.08;;;;;;;6.95;54.48;97657.97;5090643;28;20517;-67
2021/03/29 02:13:09;;;;;;;6.75;3.22;;;;;;;6.97;54.76;97662.03;5090284;28;20043;-67
2021/03/29 02:15:36;;;;;;;6.85;2.97;;;;;;;6.94;54.64;97662.56;5090767;28;20044;-67
2021/03/29 02:18:05;;;;;;;6.22;2.80;;;;;;;6.96;54.62;97660.41;5089506;28;20044;-68
2021/03/29 02:20:33;;;;;;;6.97;3.38;;;;;;;6.97;54.41;97658.50;5091214;28;20044;-67
2021/03/29 02:23:00;;;;;;;7.13;2.80;;;;;;;6.98;54.51;97657.44;5090028;28;20040;-67
2021/03/29 02:25:30;;;;;;;6.07;2.90;;;;;;;6.97;54.74;97664.75;5090095;28;20051;-67
2021/03/29 02:27:58;;;;;;;5.80;2.63;;;;;;;6.97;54.47;97666.63;5089928;28;20040;-67
2021/03/29 02:30:27;;;;;;;7.53;3.05;;;;;;;6.95;54.57;97664.19;5090554;28;20054;-67
2021/03/29 02:32:54;;;;;;;5.53;2.88;;;;;;;6.90;54.94;97660.66;5090124;28;20043;-67
2021/03/29 02:35:24;;;;;;;7.03;2.80;;;;;;;6.85;54.73;97663.31;5090072;28;20052;-67
2021/03/29 02:37:52;;;;;;;6.55;3.67;;;;;;;6.81;54.86;97663.03;5090495;28;20453;-67
2021/03/29 02:40:20;;;;;;;6.20;3.00;;;;;;;6.79;54.77;97665.19;5089586;28;20105;-66
2021/03/29 02:42:47;;;;;;;5.25;2.85;;;;;;;6.76;54.77;97660.28;5090843;28;20403;-66
2021/03/29 02:45:15;;;;;;;7.35;2.50;;;;;;;6.72;54.97;97664.59;5089187;28;20059;-66
2021/03/29 02:47:43;;;;;;;8.68;2.90;;;;;;;6.67;55.15;97661.84;5090495;28;20101;-66
2021/03/29 02:50:11;;;;;;;6.45;3.05;;;;;;;6.62;55.34;97664.53;5089252;28;20040;-66
2021/03/29 02:52:39;;;;;;;8.27;2.90;;;;;;;6.53;55.74;97670.44;5090497;28;20067;-66
2021/03/29 02:55:08;;;;;;;7.40;2.90;;;;;;;6.50;55.80;97675.53;5089522;28;20047;-66
2021/03/29 02:57:36;;;;;;;6.50;2.90;;;;;;;6.45;55.88;97675.50;5089999;28;20040;-66
2021/03/29 03:00:07;;;;;;;8.07;3.17;;;;;;;6.39;55.87;97688.16;5090020;28;20040;-67
2021/03/29 03:02:34;;;;;;;7.20;3.05;;;;;;;6.34;56.05;97680.00;5089926;28;20055;-66
2021/03/29 03:05:01;;;;;;;7.65;2.80;;;;;;;6.27;56.01;97684.84;5088414;28;20040;-66
2021/03/29 03:07:27;;;;;;;6.38;2.67;;;;;;;6.22;56.33;97682.91;5066172;28;20052;-66
2021/03/29 03:09:55;;;;;;;6.10;2.88;;;;;;;6.18;56.31;97686.38;5067346;28;20522;-66
2021/03/29 03:12:21;;;;;;;6.57;2.97;;;;;;;6.14;56.48;97682.53;5065739;28;21076;-66
2021/03/29 03:14:47;;;;;;;5.40;2.50;;;;;;;6.13;56.36;97683.63;5067166;28;20515;-66
2021/03/29 03:17:13;;;;;;;9.23;3.10;;;;;;;6.10;56.50;97676.00;5073503;28;20044;-66
2021/03/29 03:19:39;;;;;;;8.40;2.92;;;;;;;6.07;56.49;97685.47;5087084;28;20075;-66
2021/03/29 03:22:05;;;;;;;4.95;2.90;;;;;;;6.06;56.41;97677.63;5086331;28;20128;-66
2021/03/29 03:24:33;;;;;;;8.25;2.80;;;;;;;6.00;56.79;97687.53;5086410;28;20047;-66
2021/03/29 03:27:05;;;;;;;5.85;2.72;;;;;;;5.96;56.80;97679.16;5086854;28;20062;-66
2021/03/29 03:29:33;;;;;;;6.55;2.90;;;;;;;5.93;56.72;97690.47;5086103;28;20048;-66
2021/03/29 03:31:59;;;;;;;5.85;2.90;;;;;;;5.88;56.82;97687.66;5087159;28;20048;-66
2021/03/29 03:34:25;;;;;;;6.85;3.05;;;;;;;5.84;57.05;97686.53;5085697;28;20051;-66
2021/03/29 03:36:51;;;;;;;6.55;2.63;;;;;;;5.82;57.06;97683.28;5088554;28;20052;-66
2021/03/29 03:39:18;;;;;;;5.63;2.45;;;;;;;5.83;57.00;97689.50;5091399;28;20044;-66
2021/03/29 03:41:44;;;;;;;8.63;2.58;;;;;;;5.81;57.16;97687.06;5094036;28;20630;-66
2021/03/29 03:44:11;;;;;;;5.40;2.75;;;;;;;5.78;57.16;97686.75;5092850;28;20051;-66
2021/03/29 03:46:40;;;;;;;5.18;2.53;;;;;;;5.73;57.29;97690.22;5089140;28;20097;-66
2021/03/29 03:49:10;;;;;;;5.20;2.45;;;;;;;5.70;57.18;97685.34;5093238;28;20097;-66
2021/03/29 03:51:36;;;;;;;7.35;2.97;;;;;;;5.65;57.45;97687.97;5091748;28;20036;-66
2021/03/29 03:54:04;;;;;;;5.18;2.83;;;;;;;5.62;57.38;97683.06;5088565;28;20499;-66
2021/03/29 03:56:32;;;;;;;5.57;2.30;;;;;;;5.59;57.31;97686.28;5092731;28;20051;-66
2021/03/29 03:58:58;;;;;;;5.25;2.60;;;;;;;5.54;57.20;97680.84;5093687;28;20055;-66
2021/03/29 04:01:25;;;;;;;6.47;2.53;;;;;;;5.50;57.37;97686.72;5092376;28;20044;-66
2021/03/29 04:03:51;;;;;;;5.47;2.40;;;;;;;5.53;57.35;97680.00;5093897;28;20047;-66
2021/03/29 04:06:17;;;;;;;6.13;2.85;;;;;;;5.53;57.29;97689.97;5092457;28;20127;-66
2021/03/29 04:08:45;;;;;;;5.55;2.92;;;;;;;5.54;57.33;97680.84;5093300;28;20135;-66
2021/03/29 04:11:12;;;;;;;5.40;2.97;;;;;;;5.60;57.21;97690.63;5092733;28;20090;-66
2021/03/29 04:13:38;;;;;;;5.78;2.80;;;;;;;5.64;56.94;97694.47;5092711;28;20044;-66
2021/03/29 04:16:06;;;;;;;7.78;2.85;;;;;;;5.69;56.64;97689.09;5093185;28;20059;-67
2021/03/29 04:18:34;;;;;;;5.93;2.70;;;;;;;5.75;56.11;97698.91;5092308;28;20048;-66
2021/03/29 04:21:01;;;;;;;5.97;2.22;;;;;;;5.83;55.69;97703.84;5093668;28;20048;-66
2021/03/29 04:23:29;;;;;;;6.65;2.38;;;;;;;5.86;54.78;97695.22;5091748;28;20043;-66
2021/03/29 04:25:56;;;;;;;5.57;2.28;;;;;;;5.90;53.82;97696.38;5093200;28;20493;-66
2021/03/29 04:28:22;;;;;;;5.68;2.20;;;;;;;5.96;53.60;97697.25;5091784;28;20043;-66
2021/03/29 04:30:49;;;;;;;6.43;2.50;;;;;;;6.03;53.27;97694.34;5092933;28;20044;-66
2021/03/29 04:33:15;;;;;;;4.15;2.00;;;;;;;6.08;53.41;97691.69;5092161;28;20584;-66
2021/03/29 04:35:42;;;;;;;5.60;2.25;;;;;;;6.11;53.22;97699.28;5092380;28;20074;-66
2021/03/29 04:38:08;;;;;;;3.90;2.13;;;;;;;6.15;53.43;97701.22;5092386;28;20093;-67
2021/03/29 04:40:34;;;;;;;3.58;2.13;;;;;;;6.17;52.74;97706.38;5092226;28;20036;-67
2021/03/29 04:43:01;;;;;;;4.10;2.08;;;;;;;6.18;52.74;97702.59;5093108;28;20044;-66
2021/03/29 04:45:27;;;;;;;4.70;2.08;;;;;;;6.20;52.65;97705.84;5092832;28;20040;-67
2021/03/29 04:47:53;;;;;;;9.38;2.60;;;;;;;6.20;52.87;97705.84;5092368;28;20040;-66
2021/03/29 04:50:22;;;;;;;4.63;2.40;;;;;;;6.20;52.96;97708.56;5091359;28;20048;-67
2021/03/29 04:52:50;;;;;;;5.45;2.92;;;;;;;6.23;53.21;97716.16;5092428;28;20047;-67
2021/03/29 04:55:17;;;;;;;5.97;2.50;;;;;;;6.22;53.11;97711.84;5091583;28;20507;-66
2021/03/29 04:57:43;;;;;;;4.88;2.60;;;;;;;6.22;53.32;97714.53;5092209;28;20055;-66
2021/03/29 05:00:11;;;;;;;7.65;2.30;;;;;;;6.20;53.46;97716.66;5091844;28;20047;-67
2021/03/29 05:02:37;;;;;;;6.65;2.50;;;;;;;6.17;53.51;97717.19;5091940;28;20059;-67
2021/03/29 05:05:04;;;;;;;3.70;2.33;;;;;;;6.11;53.64;97724.44;5091231;28;20051;-66
2021/03/29 05:07:31;;;;;;;5.28;2.13;;;;;;;6.10;54.09;97730.09;5091534;28;20594;-69
2021/03/29 05:09:58;;;;;;;6.15;2.97;;;;;;;6.08;53.91;97727.66;5092865;28;20064;-69
2021/03/29 05:12:24;;;;;;;4.78;2.40;;;;;;;6.06;53.94;97732.50;5090947;28;20040;-70
2021/03/29 05:14:51;;;;;;;7.78;2.60;;;;;;;6.04;54.78;97733.81;5092252;28;20473;-70
2021/03/29 05:17:19;;;;;;;6.43;2.65;;;;;;;6.00;54.25;97734.34;5091189;28;20055;-69
2021/03/29 05:19:45;;;;;;;6.03;2.35;;;;;;;5.95;54.40;97737.00;5091532;28;20041;-69
2021/03/29 05:22:11;;;;;;;7.43;2.55;;;;;;;5.93;54.55;97749.94;5091241;28;20055;-69
2021/03/29 05:24:38;;;;;;;7.47;2.90;;;;;;;5.89;54.63;97745.25;5091218;28;20105;-69
2021/03/29 05:27:06;;;;;;;7.65;2.70;;;;;;;5.88;54.54;97746.34;5091740;28;20044;-70
2021/03/29 05:29:41;;;;;;;9.95;2.90;;;;;;;5.86;55.10;97748.47;5091183;28;20130;-69
2021/03/29 05:32:12;;;;;;;7.35;3.20;;;;;;;5.84;54.99;97746.00;5091942;28;20048;-70
2021/03/29 05:34:38;;;;;;;6.00;2.50;;;;;;;5.85;55.04;97750.38;5090459;28;20048;-69
2021/03/29 05:37:04;;;;;;;10.02;2.92;;;;;;;5.84;55.42;97753.31;5091471;28;20093;-70
2021/03/29 05:39:30;;;;;;;6.05;2.85;;;;;;;5.87;55.46;97750.94;5091048;28;20040;-70
2021/03/29 05:41:56;;;;;;;8.45;2.90;;;;;;;5.89;55.30;97754.19;5091746;28;20050;-70
2021/03/29 05:44:25;;;;;;;11.63;3.20;;;;;;;5.90;55.26;97761.25;5090923;28;20082;-70
2021/03/29 05:46:51;;;;;;;10.43;2.95;;;;;;;5.94;55.41;97762.38;5091400;28;20032;-70
2021/03/29 05:49:17;;;;;;;7.75;2.92;;;;;;;5.95;55.57;97755.94;5091221;28;20051;-69
2021/03/29 05:51:43;;;;;;;7.25;2.92;;;;;;;5.98;55.65;97762.69;5090706;28;20048;-70
2021/03/29 05:54:09;;;;;;;7.53;3.00;;;;;;;5.98;55.60;97763.50;5091391;28;20040;-70
2021/03/29 05:56:36;;;;;;;9.32;3.08;;;;;;;6.02;55.90;97769.25;5090957;28;20051;-70
2021/03/29 05:59:09;;;;;;;8.65;2.63;;;;;;;6.05;55.46;97776.81;5091525;28;20398;-70
2021/03/29 06:01:46;;;;;;;8.13;2.90;;;;;;;6.09;55.83;97772.56;5090936;28;20059;-70
2021/03/29 06:04:13;;;;;;;6.57;2.90;;;;;;;6.14;55.54;97769.91;5090776;28;20043;-69
2021/03/29 06:06:40;;;;;;;9.88;2.50;;;;;;;6.18;54.85;97768.31;5091281;28;20044;-70
2021/03/29 06:09:07;;;;;;;8.88;2.78;;;;;;;6.28;55.13;97773.03;5090360;28;20072;-70
2021/03/29 06:11:35;;;;;;;7.35;2.90;;;;;;;6.34;54.54;97782.81;5091498;28;20051;-70
2021/03/29 06:14:16;;;;;;;4.80;2.35;;;;;;;6.39;54.43;97785.56;5090098;28;20032;-71
2021/03/29 06:17:00;;;;;;;7.30;3.03;;;;;;;6.46;54.23;97782.66;5091623;28;20083;-70
2021/03/29 06:19:47;;;;;;;5.88;2.72;;;;;;;6.54;53.97;97787.63;5089741;28;20491;-69
2021/03/29 06:22:17;;;;;;;6.07;2.55;;;;;;;6.62;53.33;97783.59;5090042;28;20498;-69
2021/03/29 06:25:08;;;;;;;4.90;2.65;;;;;;;6.70;53.17;97785.84;5070725;28;20059;-69
2021/03/29 06:27:45;;;;;;;5.25;2.47;;;;;;;6.76;53.39;97791.03;5063330;28;20049;-69
2021/03/29 06:30:17;;;;;;;4.95;2.60;;;;;;;6.90;54.09;97790.63;5091022;28;20127;-69
2021/03/29 06:33:05;;;;;;;6.50;2.60;;;;;;;6.97;53.45;97791.22;5090315;28;20044;-71
2021/03/29 06:35:35;;;;;;;6.32;2.70;;;;;;;7.05;53.23;97796.16;5090564;28;20043;-71
2021/03/29 06:38:15;;;;;;;10.18;2.90;;;;;;;7.13;52.26;97800.25;5090321;28;20051;-71
2021/03/29 06:40:44;;;;;;;8.13;2.80;;;;;;;7.20;51.97;97795.44;5086962;28;20169;-71
2021/03/29 06:43:28;;;;;;;7.47;2.70;;;;;;;7.30;51.95;97795.50;5088954;28;20403;-71
2021/03/29 06:45:55;;;;;;;;;;;;;;;7.38;51.14;97792.31;5089901;28;20495;-74
2021/03/29 06:48:27;;;;;;;5.40;2.70;;;;;;;7.42;52.20;97792.59;5089628;28;21426;-72
2021/03/29 06:51:11;;;;;;;7.30;2.58;;;;;;;7.50;51.84;97801.03;5089975;28;20036;-71
2021/03/29 06:53:40;;;;;;;9.27;2.70;;;;;;;7.56;51.44;97797.28;5085597;28;20058;-71
2021/03/29 06:56:27;;;;;;;5.20;2.40;;;;;;;7.68;51.07;97796.28;5090557;28;20036;-72
2021/03/29 06:58:55;;;;;;;5.60;2.80;;;;;;;7.78;51.00;97799.84;5089872;28;20044;-71
2021/03/29 07:01:24;;;;;;;6.75;2.65;;;;;;;7.90;50.77;97810.47;5090476;28;20419;-71
2021/03/29 07:03:52;;;;;;;6.30;2.47;;;;;;;8.05;50.13;97805.09;5089880;28;20525;-71
2021/03/29 07:06:23;;;;;;;4.72;3.00;;;;;;;8.22;50.88;97806.78;5090278;28;20048;-71
2021/03/29 07:08:49;;;;;;;7.75;3.08;;;;;;;8.34;49.65;97815.47;5090286;28;20093;-70
2021/03/29 07:11:17;;;;;;;8.07;3.17;;;;;;;8.55;50.02;97811.75;5090386;28;20036;-69
2021/03/29 07:13:44;;;;;;;5.18;2.45;;;;;;;8.62;48.58;97806.88;5094547;28;20502;-69
2021/03/29 07:16:11;;;;;;;6.38;2.92;;;;;;;8.81;48.66;97812.59;5093677;28;20048;-70
2021/03/29 07:18:38;;;;;;;6.32;2.65;;;;;;;9.05;48.05;97810.16;5095015;28;20063;-70
2021/03/29 07:21:08;;;;;;;6.43;2.65;;;;;;;9.76;46.69;97809.25;5093447;28;20097;-70
2021/03/29 07:23:35;;;;;;;6.85;2.90;;;;;;;10.47;45.54;97802.66;5094459;28;20052;-70
2021/03/29 07:26:01;;;;;;;7.10;2.55;;;;;;;10.92;43.75;97803.44;5093659;28;20506;-69
2021/03/29 07:28:29;;;;;;;11.98;2.95;;;;;;;11.38;42.26;97805.75;5094335;28;20106;-69
2021/03/29 07:30:59;;;;;;;11.32;2.70;;;;;;;12.06;40.97;97805.59;5093980;28;20039;-69
2021/03/29 07:33:46;;;;;;;4.07;2.13;;;;;;;12.63;39.05;97803.72;5093575;28;20048;-70
2021/03/29 07:36:13;;;;;;;5.35;2.25;;;;;;;13.35;36.98;97805.34;5093626;28;20490;-70
2021/03/29 07:38:55;;;;;;;8.70;2.30;;;;;;;13.69;35.13;97807.75;5093409;28;20098;-69
2021/03/29 07:41:22;;;;;;;5.00;2.10;;;;;;;13.72;35.76;97813.41;5094016;28;20048;-70
2021/03/29 07:44:10;;;;;;;5.88;2.20;;;;;;;14.35;33.87;97804.50;5093486;28;20047;-70
2021/03/29 07:46:37;;;;;;;4.50;2.20;;;;;;;14.19;34.32;97810.59;5093880;28;20063;-71
2021/03/29 07:49:03;;;;;;;11.88;2.33;;;;;;;14.75;34.72;97810.22;5093322;28;20040;-70
2021/03/29 07:51:30;;;;;;;9.00;2.90;;;;;;;15.03;33.62;97815.59;5091706;28;20051;-71
2021/03/29 07:54:01;;;;;;;9.63;2.50;;;;;;;15.46;32.33;97810.41;5093983;28;20613;-69
2021/03/29 07:56:42;;;;;;;6.57;2.97;;;;;;;14.91;33.41;97809.84;5092785;28;20200;-71
2021/03/29 07:59:09;;;;;;;7.65;2.22;;;;;;;14.72;33.58;97813.59;5073427;28;20037;-70
2021/03/29 08:01:58;;;;;;;8.07;2.70;;;;;;;14.52;34.70;97809.38;5072859;28;20067;-69
2021/03/29 08:04:57;;;;;;;9.35;2.50;;;;;;;14.87;34.63;97804.97;5072973;28;20097;-70
2021/03/29 08:07:38;;;;;;;8.52;3.13;;;;;;;14.70;35.54;97809.50;5073045;28;20044;-70
2021/03/29 08:10:06;;;;;;;5.78;2.78;;;;;;;14.79;34.40;97803.00;5072131;28;20044;-70
2021/03/29 08:12:32;;;;;;;8.55;2.45;;;;;;;15.02;35.46;97805.75;5073671;28;20047;-70
2021/03/29 08:14:59;;;;;;;5.63;2.63;;;;;;;15.01;34.26;97804.13;5072765;28;20098;-70
2021/03/29 08:17:47;;;;;;;7.32;2.78;;;;;;;15.72;33.16;97802.34;5072755;28;20044;-70
2021/03/29 08:20:17;;;;;;;8.82;2.90;;;;;;;15.46;33.29;97804.13;5072727;28;20048;-70
2021/03/29 08:22:44;;;;;;;6.30;2.80;;;;;;;15.47;34.47;97801.03;5086135;28;20040;-70
2021/03/29 08:25:28;;;;;;;6.57;3.30;;;;;;;16.07;32.02;97807.97;5092827;28;20043;-70
2021/03/29 08:27:56;;;;;;;8.75;3.00;;;;;;;15.83;33.01;97808.38;5092584;28;20044;-70
2021/03/29 08:30:23;;;;;;;10.52;3.05;;;;;;;16.39;35.32;97799.34;5093149;28;20039;-69
2021/03/29 08:32:49;;;;;;;14.85;3.28;;;;;;;17.04;31.86;97803.13;5092553;28;20458;-70
2021/03/29 08:35:18;;;;;;;7.55;3.25;;;;;;;17.39;30.79;97797.59;5092681;28;20044;-70
2021/03/29 08:37:46;;;;;;;9.60;2.75;;;;;;;17.44;30.05;97806.47;5092736;28;20054;-70
2021/03/29 08:40:15;;;;;;;8.55;2.97;;;;;;;17.31;29.69;97799.19;5092142;28;20112;-70
2021/03/29 08:42:43;;;;;;;6.65;3.00;;;;;;;17.77;29.90;97803.19;5093113;28;20044;-70
2021/03/29 08:45:10;;;;;;;8.23;2.88;;;;;;;17.64;30.64;97804.16;5091821;28;20044;-70
2021/03/29 08:47:39;;;;;;;5.97;3.33;;;;;;;17.55;29.90;97815.22;5093205;28;20040;-71
2021/03/29 08:50:08;;;;;;;5.20;3.10;;;;;;;18.04;30.92;97806.63;5091413;28;20123;-69
2021/03/29 08:52:43;;;;;;;9.45;2.97;;;;;;;18.73;29.01;97812.56;5092307;28;20042;-70
2021/03/29 08:55:12;;;;;;;9.52;3.13;;;;;;;19.21;28.34;97813.16;5091464;28;20558;-70
2021/03/29 08:57:38;;;;;;;10.73;3.03;;;;;;;19.16;27.57;97818.91;5092605;28;20047;-70
2021/03/29 09:00:09;;;;;;;7.07;3.17;;;;;;;18.98;27.94;97821.00;5091868;28;20036;-70
2021/03/29 09:02:36;;;;;;;9.43;3.05;;;;;;;19.12;28.68;97813.25;5092140;28;20043;-70
2021/03/29 09:05:05;;;;;;;7.82;2.88;;;;;;;19.15;27.95;97809.00;5092306;28;20123;-70
2021/03/29 09:07:33;;;;;;;9.68;3.35;;;;;;;19.56;27.00;97814.44;5091642;28;20499;-71
2021/03/29 09:10:00;;;;;;;9.75;3.10;;;;;;;19.84;27.43;97811.09;5092608;28;20399;-70
2021/03/29 09:12:30;;;;;;;5.18;2.85;;;;;;;20.57;26.59;97819.44;5091172;28;20460;-71
2021/03/29 09:14:57;;;;;;;6.70;2.40;;;;;;;20.56;23.74;97815.06;5092602;28;20495;-70
2021/03/29 09:17:25;;;;;;;9.95;3.33;;;;;;;19.91;24.68;97816.88;5091108;28;20039;-70
2021/03/29 09:19:51;;;;;;;7.70;2.85;;;;;;;20.15;24.73;97813.34;5092142;28;20044;-71
2021/03/29 09:22:30;;;;;;;5.20;2.80;;;;;;;20.44;24.58;97828.06;5089578;28;20048;-72
2021/03/29 09:24:57;;;;;;;6.13;2.70;;;;;;;20.56;23.83;97823.34;5091452;28;20518;-70
2021/03/29 09:27:30;;;;;;;8.70;2.78;;;;;;;20.51;23.05;97834.66;5091592;28;20040;-70
2021/03/29 09:29:58;;;;;;;7.50;2.37;;;;;;;20.54;23.83;97833.97;5091217;28;20571;-70
2021/03/29 09:32:24;;;;;;;5.22;2.30;;;;;;;20.58;24.51;97832.13;5091926;28;20036;-71
2021/03/29 09:34:52;;;;;;;12.32;3.20;;;;;;;20.64;23.43;97837.44;5090804;28;20495;-72
2021/03/29 09:37:21;;;;;;;3.40;2.22;;;;;;;20.97;23.81;97826.97;5091499;28;20562;-72
2021/03/29 09:39:47;;;;;;;6.20;2.33;;;;;;;21.43;25.01;97835.84;5091304;28;20620;-72
2021/03/29 09:42:17;;;;;;;7.47;2.97;;;;;;;21.79;22.62;97831.28;5091051;28;20052;-72
2021/03/29 09:44:43;;;;;;;6.93;2.25;;;;;;;22.05;22.83;97826.03;5091520;28;20570;-72
2021/03/29 09:47:10;;;;;;;5.28;2.13;;;;;;;21.95;23.40;97829.34;5090590;28;20092;-70
2021/03/29 09:49:50;;;;;;;4.18;2.50;;;;;;;21.94;23.76;97827.72;5091670;28;20043;-70
2021/03/29 09:52:17;;;;;;;6.50;2.25;;;;;;;21.95;21.97;97829.34;5089834;28;20403;-72
2021/03/29 09:54:48;;;;;;;4.90;2.35;;;;;;;21.44;23.28;97829.16;5091989;28;20040;-72
2021/03/29 09:57:16;;;;;;;5.40;2.60;;;;;;;21.47;22.76;97836.78;5091431;28;20519;-72
2021/03/29 09:59:43;;;;;;;5.28;2.03;;;;;;;21.34;22.35;97832.44;5091552;28;20054;-72
2021/03/29 10:02:15;;;;;;;6.05;2.60;;;;;;;20.92;26.21;97827.22;5090419;28;20046;-71
2021/03/29 10:04:43;;;;;;;7.30;2.20;;;;;;;20.66;24.50;97824.03;5091147;28;20044;-72
2021/03/29 10:07:14;;;;;;;7.18;2.50;;;;;;;20.72;23.29;97823.44;5090855;28;20044;-72
2021/03/29 10:09:44;;;;;;;6.70;2.55;;;;;;;20.52;23.71;97824.41;5090720;28;20491;-72
2021/03/29 10:12:10;;;;;;;4.43;2.30;;;;;;;19.91;24.94;97827.13;5090966;28;20101;-72
2021/03/29 10:14:38;;;;;;;5.90;2.58;;;;;;;19.86;24.27;97819.84;5090228;28;20040;-72
2021/03/29 10:17:15;;;;;;;6.22;2.33;;;;;;;19.33;25.43;97818.75;5091259;28;20040;-72
2021/03/29 10:19:41;;;;;;;6.18;2.42;;;;;;;19.06;25.82;97819.34;5090465;28;20156;-69
2021/03/29 10:22:13;;;;;;;4.50;2.22;;;;;;;19.36;25.23;97815.28;5089894;28;20506;-72
2021/03/29 10:24:58;;;;;;;8.55;2.42;;;;;;;19.56;25.47;97811.69;5090361;28;20079;-72
2021/03/29 10:27:25;;;;;;;6.88;2.40;;;;;;;19.48;25.27;97812.59;5089654;28;20719;-71
2021/03/29 10:29:51;;;;;;;4.22;2.53;;;;;;;19.54;25.43;97814.00;5091138;28;20055;-72
2021/03/29 10:32:20;;;;;;;5.78;2.20;;;;;;;19.59;25.67;97809.41;5089745;28;20058;-72
2021/03/29 10:34:49;;;;;;;8.30;2.30;;;;;;;19.59;25.32;97809.41;5091258;28;20050;-70
2021/03/29 10:37:22;;;;;;;6.82;2.20;;;;;;;19.47;24.85;97802.69;5089445;28;20093;-72
2021/03/29 10:39:48;;;;;;;8.10;2.27;;;;;;;19.49;24.42;97805.91;5090978;28;20058;-72
2021/03/29 10:42:15;;;;;;;8.30;2.08;;;;;;;19.65;24.68;97808.06;5089735;28;20044;-72
2021/03/29 10:44:41;;;;;;;5.38;2.47;;;;;;;19.59;24.68;97795.59;5090905;28;20036;-72
2021/03/29 10:47:07;;;;;;;5.28;2.65;;;;;;;19.44;24.43;97800.59;5089909;28;20047;-72
2021/03/29 10:49:34;;;;;;;5.70;2.45;;;;;;;19.54;26.17;97796.63;5090131;28;20085;-72
2021/03/29 10:52:00;;;;;;;6.72;2.92;;;;;;;19.47;25.37;97797.19;5090151;28;20047;-71
2021/03/29 10:54:26;;;;;;;4.80;2.17;;;;;;;19.49;24.28;97794.88;5089764;28;20036;-72
2021/03/29 10:56:52;;;;;;;6.72;2.70;;;;;;;19.44;24.54;97792.31;5090929;28;20050;-72
2021/03/29 10:59:18;;;;;;;4.47;2.38;;;;;;;19.34;24.87;97789.19;5089228;28;20044;-72
2021/03/29 11:01:44;;;;;;;4.57;2.00;;;;;;;19.26;26.33;97785.34;5091133;28;20051;-72
2021/03/29 11:04:10;;;;;;;8.00;2.60;;;;;;;19.47;24.52;97788.06;5089185;28;20040;-72
2021/03/29 11:06:37;;;;;;;7.75;2.75;;;;;;;19.52;25.32;97783.16;5090569;28;20085;-70
2021/03/29 11:09:03;;;;;;;4.85;2.30;;;;;;;19.34;23.58;97786.41;5089562;28;20044;-70
2021/03/29 11:11:29;;;;;;;5.22;2.70;;;;;;;19.17;21.90;97787.41;5090313;28;20040;-71
2021/03/29 11:13:55;;;;;;;5.22;2.00;;;;;;;18.98;23.30;97788.69;5090218;28;20135;-70
2021/03/29 11:16:22;;;;;;;3.78;1.85;;;;;;;19.16;23.17;97791.28;5089532;28;20079;-70
2021/03/29 11:18:48;;;;;;;5.00;1.80;;;;;;;19.15;22.82;97784.16;5090386;28;20422;-70
2021/03/29 11:21:14;;;;;;;5.78;1.92;;;;;;;19.22;23.52;97779.72;5088744;28;20105;-71
2021/03/29 11:23:41;;;;;;;7.63;1.70;;;;;;;19.31;23.78;97771.31;5090814;28;20071;-70
2021/03/29 11:26:07;;;;;;;3.90;2.05;;;;;;;19.16;23.51;97771.94;5089030;28;20044;-71
2021/03/29 11:28:34;;;;;;;4.57;1.80;;;;;;;19.32;22.69;97774.91;5090723;28;20051;-70
2021/03/29 11:31:00;;;;;;;4.75;1.70;;;;;;;19.45;24.07;97771.81;5088075;28;20040;-70
2021/03/29 11:33:26;;;;;;;4.57;2.03;;;;;;;19.60;22.80;97775.13;5089972;28;20047;-70
2021/03/29 11:35:52;;;;;;;5.53;1.85;;;;;;;19.69;22.61;97764.78;5089901;28;20044;-71
2021/03/29 11:38:18;;;;;;;3.92;2.28;;;;;;;19.65;24.27;97763.84;5089079;28;20655;-71
2021/03/29 11:40:45;;;;;;;3.65;1.80;;;;;;;19.69;24.21;97767.56;5090089;28;20075;-70
2021/03/29 11:43:11;;;;;;;3.83;2.25;;;;;;;19.91;21.48;97769.06;5088775;28;20395;-70
2021/03/29 11:45:38;;;;;;;3.95;1.90;;;;;;;19.81;22.44;97762.84;5090429;28;20044;-71
2021/03/29 11:48:05;;;;;;;4.25;2.00;;;;;;;19.91;24.10;97767.09;5088794;28;20077;-70